createdAt,value
2016-04-25T00:00:03.216Z,1.74
2016-04-25T00:00:13.216Z,1.74
2016-04-25T00:00:23.231Z,1.76
2016-04-25T00:00:33.231Z,1.68
2016-04-25T00:00:43.231Z,1.75
2016-04-25T00:00:53.234Z,1.71
2016-04-25T00:01:03.234Z,1.74
2016-04-25T00:01:13.250Z,1.75
2016-04-25T00:01:23.250Z,1.68
2016-04-25T00:01:33.250Z,1.68
2016-04-25T00:01:43.250Z,1.67
2016-04-25T00:01:53.252Z,1.7
2016-04-25T00:02:03.268Z,1.66
2016-04-25T00:02:13.268Z,1.63
2016-04-25T00:02:23.268Z,1.68
2016-04-25T00:02:33.268Z,1.61
2016-04-25T00:02:43.268Z,1.58
2016-04-25T00:02:53.285Z,1.63
2016-04-25T00:03:03.285Z,1.75
2016-04-25T00:03:13.285Z,1.64
2016-04-25T00:03:23.301Z,1.61
2016-04-25T00:03:33.301Z,1.58
2016-04-25T00:03:43.301Z,1.52
2016-04-25T00:03:53.304Z,1.57
2016-04-25T00:04:03.304Z,1.56
2016-04-25T00:04:13.319Z,1.63
2016-04-25T00:04:23.319Z,1.61
2016-04-25T00:04:33.319Z,1.56
2016-04-25T00:04:43.319Z,1.6
2016-04-25T00:04:53.323Z,1.52
2016-04-25T00:05:03.339Z,1.58
2016-04-25T00:05:13.339Z,1.6
2016-04-25T00:05:23.339Z,1.6
2016-04-25T00:05:33.339Z,1.56
2016-04-25T00:05:43.339Z,1.58
2016-04-25T00:05:53.341Z,1.58
2016-04-25T00:06:03.357Z,1.61
2016-04-25T00:06:13.372Z,1.53
2016-04-25T00:06:23.372Z,1.57
2016-04-25T00:06:33.372Z,1.57
2016-04-25T00:06:43.372Z,1.58
2016-04-25T00:06:53.374Z,1.5
2016-04-25T00:07:03.374Z,1.57
2016-04-25T00:07:13.374Z,1.5
2016-04-25T00:07:23.390Z,1.57
2016-04-25T00:07:33.390Z,1.56
2016-04-25T00:07:43.406Z,1.48
2016-04-25T00:07:53.393Z,1.52
2016-04-25T00:08:03.393Z,1.45
2016-04-25T00:08:13.409Z,1.5
2016-04-25T00:08:23.409Z,1.43
2016-04-25T00:08:33.409Z,1.52
2016-04-25T00:08:43.409Z,1.53
2016-04-25T00:08:53.411Z,1.49
2016-04-25T00:09:03.426Z,1.5
2016-04-25T00:09:13.426Z,1.56
2016-04-25T00:09:23.426Z,1.46
2016-04-25T00:09:33.426Z,1.58
2016-04-25T00:09:43.442Z,1.56
2016-04-25T00:09:53.446Z,1.48
2016-04-25T00:10:03.446Z,1.56
2016-04-25T00:10:13.446Z,1.53
2016-04-25T00:10:23.461Z,1.43
2016-04-25T00:10:33.461Z,1.56
2016-04-25T00:10:43.461Z,1.5
2016-04-25T00:10:53.464Z,1.56
2016-04-25T00:11:03.464Z,1.48
2016-04-25T00:11:13.480Z,1.45
2016-04-25T00:11:23.480Z,1.46
2016-04-25T00:11:33.480Z,1.48
2016-04-25T00:11:43.480Z,1.46
2016-04-25T00:11:53.482Z,1.43
2016-04-25T00:12:03.498Z,1.43
2016-04-25T00:12:13.498Z,1.48
2016-04-25T00:12:23.498Z,1.43
2016-04-25T00:12:33.498Z,1.4
2016-04-25T00:12:43.513Z,1.45
2016-04-25T00:12:53.515Z,1.43
2016-04-25T00:13:03.515Z,1.48
2016-04-25T00:13:13.515Z,1.43
2016-04-25T00:13:23.515Z,1.36
2016-04-25T00:13:33.531Z,1.4
2016-04-25T00:13:43.531Z,1.45
2016-04-25T00:13:53.534Z,1.48
2016-04-25T00:14:03.534Z,1.43
2016-04-25T00:14:13.534Z,1.39
2016-04-25T00:14:23.550Z,1.38
2016-04-25T00:14:33.550Z,1.45
2016-04-25T00:14:43.550Z,1.45
2016-04-25T00:14:53.553Z,1.46
2016-04-25T00:15:03.568Z,1.48
2016-04-25T00:15:13.568Z,1.42
2016-04-25T00:15:23.568Z,1.46
2016-04-25T00:15:33.568Z,1.42
2016-04-25T00:15:43.568Z,1.4
2016-04-25T00:15:53.587Z,1.43
2016-04-25T00:16:03.587Z,1.38
2016-04-25T00:16:13.587Z,1.45
2016-04-25T00:16:23.587Z,1.43
2016-04-25T00:16:33.602Z,1.45
2016-04-25T00:16:43.602Z,1.34
2016-04-25T00:16:53.605Z,1.42
2016-04-25T00:17:03.605Z,1.43
2016-04-25T00:17:13.605Z,1.49
2016-04-25T00:17:23.621Z,1.4
2016-04-25T00:17:33.621Z,1.38
2016-04-25T00:17:43.621Z,1.3
2016-04-25T00:17:53.623Z,1.39
2016-04-25T00:18:03.639Z,1.39
2016-04-25T00:18:13.639Z,1.4
2016-04-25T00:18:23.639Z,1.45
2016-04-25T00:18:33.639Z,1.46
2016-04-25T00:18:43.639Z,1.38
2016-04-25T00:18:53.656Z,1.5
2016-04-25T00:19:03.656Z,1.48
2016-04-25T00:19:13.672Z,1.38
2016-04-25T00:19:23.656Z,1.34
2016-04-25T00:19:33.656Z,1.34
2016-04-25T00:19:43.672Z,1.39
2016-04-25T00:19:53.675Z,1.38
2016-04-25T00:20:06.691Z,1.36
2016-04-25T00:20:16.659Z,1.4
2016-04-25T00:20:26.659Z,1.4
2016-04-25T00:20:36.675Z,1.39
2016-04-25T00:20:46.675Z,1.36
2016-04-25T00:20:56.679Z,1.48
2016-04-25T00:21:06.679Z,1.45
2016-04-25T00:21:16.679Z,1.43
2016-04-25T00:21:26.695Z,1.38
2016-04-25T00:21:36.695Z,1.32
2016-04-25T00:21:46.710Z,1.42
2016-04-25T00:21:56.696Z,1.3
2016-04-25T00:22:06.711Z,1.42
2016-04-25T00:22:17.027Z,1.25
2016-04-25T00:22:26.717Z,1.3
2016-04-25T00:22:36.717Z,1.36
2016-04-25T00:22:46.717Z,1.34
2016-04-25T00:22:56.720Z,1.42
2016-04-25T00:23:06.720Z,1.24
2016-04-25T00:23:16.736Z,1.4
2016-04-25T00:23:26.736Z,1.36
2016-04-25T00:23:36.736Z,1.42
2016-04-25T00:23:46.736Z,1.43
2016-04-25T00:23:56.754Z,1.4
2016-04-25T00:24:06.770Z,1.27
2016-04-25T00:24:16.754Z,1.34
2016-04-25T00:24:26.754Z,1.38
2016-04-25T00:24:36.754Z,1.31
2016-04-25T00:24:46.770Z,1.24
2016-04-25T00:24:56.773Z,1.31
2016-04-25T00:25:06.773Z,1.34
2016-04-25T00:25:16.773Z,1.4
2016-04-25T00:25:26.788Z,1.32
2016-04-25T00:25:36.788Z,1.39
2016-04-25T00:25:46.788Z,1.34
2016-04-25T00:25:56.790Z,1.31
2016-04-25T00:26:06.806Z,1.34
2016-04-25T00:26:16.806Z,1.31
2016-04-25T00:26:26.806Z,1.31
2016-04-25T00:26:36.806Z,1.42
2016-04-25T00:26:47.150Z,1.39
2016-04-25T00:26:56.825Z,1.38
2016-04-25T00:27:06.825Z,1.36
2016-04-25T00:27:17.887Z,1.43
2016-04-25T00:27:26.825Z,1.38
2016-04-25T00:27:36.825Z,1.3
2016-04-25T00:27:46.840Z,1.34
2016-04-25T00:27:56.843Z,1.39
2016-04-25T00:28:06.843Z,1.4
2016-04-25T00:28:16.843Z,1.39
2016-04-25T00:28:26.843Z,1.31
2016-04-25T00:28:36.875Z,1.32
2016-04-25T00:28:46.859Z,1.31
2016-04-25T00:28:56.861Z,1.3
2016-04-25T00:29:06.861Z,1.36
2016-04-25T00:29:16.861Z,1.3
2016-04-25T00:29:26.877Z,1.34
2016-04-25T00:29:36.877Z,1.3
2016-04-25T00:29:46.877Z,1.36
2016-04-25T00:29:56.881Z,1.38
2016-04-25T00:30:06.896Z,1.4
2016-04-25T00:30:16.896Z,1.27
2016-04-25T00:30:26.896Z,1.27
2016-04-25T00:30:36.896Z,1.31
2016-04-25T00:30:46.912Z,1.31
2016-04-25T00:30:56.914Z,1.34
2016-04-25T00:31:06.914Z,1.25
2016-04-25T00:31:16.914Z,1.3
2016-04-25T00:31:26.914Z,1.34
2016-04-25T00:31:36.929Z,1.31
2016-04-25T00:31:46.929Z,1.31
2016-04-25T00:31:56.932Z,1.4
2016-04-25T00:32:06.932Z,1.31
2016-04-25T00:32:16.932Z,1.34
2016-04-25T00:32:26.948Z,1.32
2016-04-25T00:32:36.948Z,1.39
2016-04-25T00:32:46.948Z,1.2
2016-04-25T00:32:56.951Z,1.31
2016-04-25T00:33:06.967Z,1.3
2016-04-25T00:33:16.967Z,1.36
2016-04-25T00:33:26.967Z,1.3
2016-04-25T00:33:36.967Z,1.3
2016-04-25T00:33:46.967Z,1.28
2016-04-25T00:33:56.984Z,1.28
2016-04-25T00:34:06.984Z,1.28
2016-04-25T00:34:16.984Z,1.27
2016-04-25T00:34:26.984Z,1.28
2016-04-25T00:34:37.000Z,1.22
2016-04-25T00:34:47.016Z,1.3
2016-04-25T00:34:57.003Z,1.21
2016-04-25T00:35:07.003Z,1.25
2016-04-25T00:35:17.003Z,1.25
2016-04-25T00:35:27.019Z,1.3
2016-04-25T00:35:37.019Z,1.31
2016-04-25T00:35:47.019Z,1.24
2016-04-25T00:35:57.021Z,1.3
2016-04-25T00:36:07.021Z,1.28
2016-04-25T00:36:17.036Z,1.31
2016-04-25T00:36:27.036Z,1.24
2016-04-25T00:36:37.036Z,1.25
2016-04-25T00:36:47.036Z,1.25
2016-04-25T00:36:57.056Z,1.24
2016-04-25T00:37:07.056Z,1.21
2016-04-25T00:37:17.056Z,1.3
2016-04-25T00:37:27.056Z,1.2
2016-04-25T00:37:37.056Z,1.22
2016-04-25T00:37:47.071Z,1.25
2016-04-25T00:37:57.073Z,1.27
2016-04-25T00:38:07.073Z,1.24
2016-04-25T00:38:17.089Z,1.22
2016-04-25T00:38:27.105Z,1.22
2016-04-25T00:38:37.089Z,1.28
2016-04-25T00:38:47.089Z,1.25
2016-04-25T00:38:57.092Z,1.22
2016-04-25T00:39:07.108Z,1.2
2016-04-25T00:39:17.108Z,1.27
2016-04-25T00:39:27.108Z,1.27
2016-04-25T00:39:37.108Z,1.25
2016-04-25T00:39:47.108Z,1.28
2016-04-25T00:39:57.125Z,1.24
2016-04-25T00:40:07.125Z,1.24
2016-04-25T00:40:17.125Z,1.27
2016-04-25T00:40:27.125Z,1.18
2016-04-25T00:40:37.125Z,1.21
2016-04-25T00:40:47.141Z,1.24
2016-04-25T00:40:57.160Z,1.25
2016-04-25T00:41:07.144Z,1.24
2016-04-25T00:41:17.160Z,1.22
2016-04-25T00:41:27.144Z,1.27
2016-04-25T00:41:37.160Z,1.21
2016-04-25T00:41:47.160Z,1.22
2016-04-25T00:41:58.099Z,1.21
2016-04-25T00:42:07.193Z,1.22
2016-04-25T00:42:17.380Z,1.14
2016-04-25T00:42:27.177Z,1.21
2016-04-25T00:42:38.146Z,1.14
2016-04-25T00:42:47.240Z,1.18
2016-04-25T00:42:57.181Z,1.22
2016-04-25T00:43:07.197Z,1.13
2016-04-25T00:43:17.197Z,1.18
2016-04-25T00:43:27.197Z,1.1
2016-04-25T00:43:37.197Z,1.1
2016-04-25T00:43:47.197Z,1.1
2016-04-25T00:43:57.214Z,1.13
2016-04-25T00:44:07.214Z,1.12
2016-04-25T00:44:17.214Z,1.18
2016-04-25T00:44:27.230Z,1.18
2016-04-25T00:44:37.214Z,1.18
2016-04-25T00:44:47.230Z,1.1
2016-04-25T00:44:57.233Z,1.16
2016-04-25T00:45:07.233Z,1.1
2016-04-25T00:45:17.233Z,1.09
2016-04-25T00:45:27.249Z,1.09
2016-04-25T00:45:37.249Z,1.14
2016-04-25T00:45:47.249Z,1.07
2016-04-25T00:45:57.266Z,1.07
2016-04-25T00:46:07.266Z,1.09
2016-04-25T00:46:17.266Z,1.13
2016-04-25T00:46:27.266Z,1.12
2016-04-25T00:46:37.282Z,1.12
2016-04-25T00:46:47.282Z,1.1
2016-04-25T00:46:57.286Z,1.06
2016-04-25T00:47:07.286Z,1.1
2016-04-25T00:47:17.286Z,1.09
2016-04-25T00:47:27.286Z,1.12
2016-04-25T00:47:37.302Z,1.09
2016-04-25T00:47:47.302Z,1.09
2016-04-25T00:47:57.304Z,1.09
2016-04-25T00:48:07.304Z,1.1
2016-04-25T00:48:17.304Z,1.09
2016-04-25T00:48:27.319Z,1.03
2016-04-25T00:48:37.319Z,1.07
2016-04-25T00:48:47.319Z,1.06
2016-04-25T00:48:57.322Z,1.06
2016-04-25T00:49:07.322Z,1.07
2016-04-25T00:49:17.338Z,1.14
2016-04-25T00:49:27.338Z,1.07
2016-04-25T00:49:37.338Z,1.06
2016-04-25T00:49:47.338Z,0.99
2016-04-25T00:49:57.340Z,0.96
2016-04-25T00:50:07.355Z,1.04
2016-04-25T00:50:17.371Z,1.1
2016-04-25T00:50:27.355Z,1.06
2016-04-25T00:50:37.355Z,1
2016-04-25T00:50:47.371Z,1.07
2016-04-25T00:50:57.374Z,1.1
2016-04-25T00:51:07.374Z,1.1
2016-04-25T00:51:17.390Z,1.09
2016-04-25T00:51:27.390Z,0.94
2016-04-25T00:51:37.390Z,1.06
2016-04-25T00:51:47.390Z,1
2016-04-25T00:51:57.392Z,1.07
2016-04-25T00:52:07.392Z,0.95
2016-04-25T00:52:17.392Z,0.94
2016-04-25T00:52:27.407Z,0.92
2016-04-25T00:52:37.407Z,0.92
2016-04-25T00:52:47.407Z,0.95
2016-04-25T00:52:57.411Z,0.94
2016-04-25T00:53:07.427Z,0.99
2016-04-25T00:53:17.427Z,0.99
2016-04-25T00:53:27.427Z,0.95
2016-04-25T00:53:37.427Z,0.95
2016-04-25T00:53:47.427Z,0.96
2016-04-25T00:53:57.445Z,0.94
2016-04-25T00:54:07.445Z,1
2016-04-25T00:54:17.445Z,0.95
2016-04-25T00:54:27.445Z,0.95
2016-04-25T00:54:37.445Z,0.89
2016-04-25T00:54:47.460Z,0.94
2016-04-25T00:54:57.463Z,0.99
2016-04-25T00:55:07.463Z,0.94
2016-04-25T00:55:17.479Z,0.94
2016-04-25T00:55:27.479Z,0.92
2016-04-25T00:55:37.479Z,1.02
2016-04-25T00:55:47.479Z,0.91
2016-04-25T00:55:57.481Z,0.94
2016-04-25T00:56:07.496Z,1.03
2016-04-25T00:56:17.496Z,0.96
2016-04-25T00:56:27.496Z,0.95
2016-04-25T00:56:37.496Z,0.96
2016-04-25T00:56:47.496Z,0.92
2016-04-25T00:56:57.516Z,0.99
2016-04-25T00:57:07.516Z,0.95
2016-04-25T00:57:17.657Z,0.99
2016-04-25T00:57:27.516Z,1
2016-04-25T00:57:37.532Z,0.95
2016-04-25T00:57:47.610Z,0.84
2016-04-25T00:57:57.549Z,0.86
2016-04-25T00:58:07.940Z,0.88
2016-04-25T00:58:17.534Z,0.99
2016-04-25T00:58:27.534Z,0.88
2016-04-25T00:58:37.549Z,0.91
2016-04-25T00:58:47.549Z,0.86
2016-04-25T00:58:57.552Z,0.84
2016-04-25T00:59:07.552Z,0.86
2016-04-25T00:59:17.552Z,0.86
2016-04-25T00:59:27.568Z,0.81
2016-04-25T00:59:37.568Z,0.81
2016-04-25T00:59:47.568Z,0.84
2016-04-25T00:59:57.570Z,0.94
2016-04-25T01:00:07.586Z,0.84
2016-04-25T01:00:17.586Z,0.82
2016-04-25T01:00:27.586Z,0.91
2016-04-25T01:00:37.586Z,0.85
2016-04-25T01:00:47.601Z,0.86
2016-04-25T01:00:57.603Z,0.78
2016-04-25T01:01:07.603Z,0.86
2016-04-25T01:01:17.603Z,0.84
2016-04-25T01:01:27.619Z,0.86
2016-04-25T01:01:37.619Z,0.84
2016-04-25T01:01:47.619Z,0.88
2016-04-25T01:01:57.622Z,0.86
2016-04-25T01:02:07.622Z,0.85
2016-04-25T01:02:17.637Z,0.86
2016-04-25T01:02:27.637Z,0.82
2016-04-25T01:02:37.637Z,0.94
2016-04-25T01:02:47.637Z,0.86
2016-04-25T01:02:57.657Z,0.84
2016-04-25T01:03:07.657Z,0.86
2016-04-25T01:03:17.657Z,0.89
2016-04-25T01:03:27.657Z,0.89
2016-04-25T01:03:37.657Z,0.86
2016-04-25T01:03:47.657Z,0.84
2016-04-25T01:03:57.659Z,0.85
2016-04-25T01:04:07.675Z,0.84
2016-04-25T01:04:17.675Z,0.86
2016-04-25T01:04:27.675Z,0.84
2016-04-25T01:04:37.690Z,0.92
2016-04-25T01:04:47.690Z,0.84
2016-04-25T01:04:57.693Z,0.82
2016-04-25T01:05:07.693Z,0.82
2016-04-25T01:05:17.693Z,0.88
2016-04-25T01:05:27.693Z,0.86
2016-04-25T01:05:37.709Z,0.85
2016-04-25T01:05:47.709Z,0.94
2016-04-25T01:05:57.711Z,0.85
2016-04-25T01:06:07.711Z,0.78
2016-04-25T01:06:17.727Z,0.84
2016-04-25T01:06:27.727Z,0.82
2016-04-25T01:06:37.727Z,0.89
2016-04-25T01:06:47.727Z,0.84
2016-04-25T01:06:57.730Z,0.91
2016-04-25T01:07:07.745Z,0.84
2016-04-25T01:07:17.745Z,0.86
2016-04-25T01:07:27.745Z,0.85
2016-04-25T01:07:37.745Z,0.74
2016-04-25T01:07:47.745Z,0.77
2016-04-25T01:07:57.764Z,0.77
2016-04-25T01:08:07.764Z,0.91
2016-04-25T01:08:17.764Z,0.89
2016-04-25T01:08:27.764Z,0.78
2016-04-25T01:08:37.779Z,0.77
2016-04-25T01:08:47.779Z,0.77
2016-04-25T01:08:57.782Z,0.76
2016-04-25T01:09:07.782Z,0.78
2016-04-25T01:09:17.782Z,0.77
2016-04-25T01:09:27.798Z,0.81
2016-04-25T01:09:37.798Z,0.88
2016-04-25T01:09:47.798Z,0.85
2016-04-25T01:09:57.800Z,0.86
2016-04-25T01:10:07.816Z,0.92
2016-04-25T01:10:17.816Z,0.82
2016-04-25T01:10:27.816Z,0.88
2016-04-25T01:10:37.816Z,0.77
2016-04-25T01:10:47.816Z,0.78
2016-04-25T01:10:57.833Z,0.84
2016-04-25T01:11:07.833Z,0.77
2016-04-25T01:11:17.833Z,0.77
2016-04-25T01:11:27.833Z,0.78
2016-04-25T01:11:37.849Z,0.82
2016-04-25T01:11:47.849Z,0.78
2016-04-25T01:11:57.852Z,0.84
2016-04-25T01:12:07.852Z,0.84
2016-04-25T01:12:17.852Z,0.78
2016-04-25T01:12:27.868Z,0.84
2016-04-25T01:12:37.868Z,0.78
2016-04-25T01:12:47.868Z,0.77
2016-04-25T01:12:58.574Z,0.78
2016-04-25T01:13:07.871Z,0.73
2016-04-25T01:13:17.871Z,0.68
2016-04-25T01:13:27.886Z,0.74
2016-04-25T01:13:37.886Z,0.7
2016-04-25T01:13:47.886Z,0.76
2016-04-25T01:13:57.889Z,0.77
2016-04-25T01:14:07.905Z,0.77
2016-04-25T01:14:17.905Z,0.81
2016-04-25T01:14:27.905Z,0.78
2016-04-25T01:14:37.905Z,0.78
2016-04-25T01:14:47.920Z,0.86
2016-04-25T01:14:57.922Z,0.81
2016-04-25T01:15:07.922Z,0.78
2016-04-25T01:15:17.922Z,0.81
2016-04-25T01:15:27.938Z,0.78
2016-04-25T01:15:37.938Z,0.84
2016-04-25T01:15:47.938Z,0.78
2016-04-25T01:15:57.941Z,0.81
2016-04-25T01:16:07.941Z,0.81
2016-04-25T01:16:17.957Z,0.78
2016-04-25T01:16:27.957Z,0.82
2016-04-25T01:16:37.957Z,0.78
2016-04-25T01:16:47.957Z,0.82
2016-04-25T01:16:57.960Z,0.82
2016-04-25T01:17:07.975Z,0.85
2016-04-25T01:17:17.975Z,0.84
2016-04-25T01:17:27.975Z,0.77
2016-04-25T01:17:37.975Z,0.77
2016-04-25T01:17:47.975Z,0.81
2016-04-25T01:17:57.994Z,0.77
2016-04-25T01:18:07.994Z,0.78
2016-04-25T01:18:18.010Z,0.84
2016-04-25T01:18:27.994Z,0.78
2016-04-25T01:18:38.010Z,0.76
2016-04-25T01:18:48.010Z,0.78
2016-04-25T01:18:58.012Z,0.81
2016-04-25T01:19:08.027Z,0.76
2016-04-25T01:19:18.012Z,0.78
2016-04-25T01:19:28.027Z,0.76
2016-04-25T01:19:38.027Z,0.81
2016-04-25T01:19:48.027Z,0.85
2016-04-25T01:19:58.030Z,0.77
2016-04-25T01:20:08.046Z,0.77
2016-04-25T01:20:18.061Z,0.81
2016-04-25T01:20:28.046Z,0.77
2016-04-25T01:20:38.046Z,0.85
2016-04-25T01:20:48.046Z,0.81
2016-04-25T01:20:58.063Z,0.73
2016-04-25T01:21:08.063Z,0.85
2016-04-25T01:21:18.079Z,0.77
2016-04-25T01:21:28.063Z,0.81
2016-04-25T01:21:38.063Z,0.78
2016-04-25T01:21:48.079Z,0.77
2016-04-25T01:21:58.083Z,0.71
2016-04-25T01:22:08.083Z,0.68
2016-04-25T01:22:18.099Z,0.77
2016-04-25T01:22:28.083Z,0.74
2016-04-25T01:22:38.099Z,0.81
2016-04-25T01:22:48.099Z,0.77
2016-04-25T01:22:58.101Z,0.7
2016-04-25T01:23:08.116Z,0.77
2016-04-25T01:23:18.132Z,0.78
2016-04-25T01:23:28.116Z,0.63
2016-04-25T01:23:38.116Z,0.64
2016-04-25T01:23:48.116Z,0.64
2016-04-25T01:23:58.118Z,0.66
2016-04-25T01:24:08.134Z,0.71
2016-04-25T01:24:18.150Z,0.76
2016-04-25T01:24:28.134Z,0.68
2016-04-25T01:24:38.134Z,0.74
2016-04-25T01:24:48.134Z,0.66
2016-04-25T01:24:58.153Z,0.73
2016-04-25T01:25:08.153Z,0.67
2016-04-25T01:25:18.168Z,0.7
2016-04-25T01:25:28.153Z,0.74
2016-04-25T01:25:38.153Z,0.73
2016-04-25T01:25:48.168Z,0.7
2016-04-25T01:25:58.171Z,0.74
2016-04-25T01:26:08.171Z,0.61
2016-04-25T01:26:18.187Z,0.71
2016-04-25T01:26:28.171Z,0.73
2016-04-25T01:26:38.187Z,0.64
2016-04-25T01:26:48.187Z,0.66
2016-04-25T01:26:58.205Z,0.68
2016-04-25T01:27:08.190Z,0.59
2016-04-25T01:27:18.205Z,0.74
2016-04-25T01:27:28.205Z,0.68
2016-04-25T01:27:38.205Z,0.7
2016-04-25T01:27:48.205Z,0.66
2016-04-25T01:27:58.224Z,0.7
2016-04-25T01:28:08.302Z,0.64
2016-04-25T01:28:18.427Z,0.7
2016-04-25T01:28:28.224Z,0.68
2016-04-25T01:28:38.224Z,0.67
2016-04-25T01:28:48.240Z,0.68
2016-04-25T01:28:58.242Z,0.68
2016-04-25T01:29:08.242Z,0.73
2016-04-25T01:29:18.242Z,0.68
2016-04-25T01:29:28.242Z,0.7
2016-04-25T01:29:38.257Z,0.68
2016-04-25T01:29:48.257Z,0.71
2016-04-25T01:29:58.260Z,0.7
2016-04-25T01:30:08.260Z,0.74
2016-04-25T01:30:18.260Z,0.67
2016-04-25T01:30:28.276Z,0.67
2016-04-25T01:30:38.276Z,0.67
2016-04-25T01:30:48.276Z,0.68
2016-04-25T01:30:58.279Z,0.64
2016-04-25T01:31:08.279Z,0.68
2016-04-25T01:31:18.295Z,0.71
2016-04-25T01:31:28.295Z,0.7
2016-04-25T01:31:38.295Z,0.67
2016-04-25T01:31:48.295Z,0.7
2016-04-25T01:31:58.312Z,0.7
2016-04-25T01:32:08.312Z,0.7
2016-04-25T01:32:18.328Z,0.7
2016-04-25T01:32:28.312Z,0.68
2016-04-25T01:32:38.312Z,0.68
2016-04-25T01:32:48.328Z,0.67
2016-04-25T01:32:58.331Z,0.64
2016-04-25T01:33:08.346Z,0.67
2016-04-25T01:33:18.346Z,0.68
2016-04-25T01:33:28.346Z,0.66
2016-04-25T01:33:38.346Z,0.64
2016-04-25T01:33:48.346Z,0.7
2016-04-25T01:33:58.349Z,0.7
2016-04-25T01:34:08.349Z,0.66
2016-04-25T01:34:18.381Z,0.64
2016-04-25T01:34:28.365Z,0.68
2016-04-25T01:34:38.365Z,0.7
2016-04-25T01:34:48.365Z,0.64
2016-04-25T01:34:58.367Z,0.68
2016-04-25T01:35:08.383Z,0.63
2016-04-25T01:35:18.398Z,0.59
2016-04-25T01:35:28.383Z,0.64
2016-04-25T01:35:38.383Z,0.64
2016-04-25T01:35:48.398Z,0.59
2016-04-25T01:35:58.401Z,0.68
2016-04-25T01:36:08.401Z,0.64
2016-04-25T01:36:18.417Z,0.63
2016-04-25T01:36:28.401Z,0.56
2016-04-25T01:36:38.417Z,0.59
2016-04-25T01:36:48.417Z,0.56
2016-04-25T01:36:58.420Z,0.59
2016-04-25T01:37:08.420Z,0.59
2016-04-25T01:37:18.436Z,0.63
2016-04-25T01:37:28.436Z,0.64
2016-04-25T01:37:38.436Z,0.59
2016-04-25T01:37:48.451Z,0.56
2016-04-25T01:37:58.438Z,0.63
2016-04-25T01:38:08.438Z,0.66
2016-04-25T01:38:18.469Z,0.58
2016-04-25T01:38:28.453Z,0.61
2016-04-25T01:38:38.453Z,0.63
2016-04-25T01:38:48.469Z,0.58
2016-04-25T01:38:58.472Z,0.55
2016-04-25T01:39:08.472Z,0.59
2016-04-25T01:39:18.503Z,0.59
2016-04-25T01:39:28.472Z,0.56
2016-04-25T01:39:38.472Z,0.63
2016-04-25T01:39:48.487Z,0.58
2016-04-25T01:39:58.490Z,0.59
2016-04-25T01:40:08.490Z,0.59
2016-04-25T01:40:18.506Z,0.58
2016-04-25T01:40:28.490Z,0.56
2016-04-25T01:40:38.506Z,0.59
2016-04-25T01:40:48.506Z,0.61
2016-04-25T01:40:58.509Z,0.59
2016-04-25T01:41:08.509Z,0.59
2016-04-25T01:41:18.525Z,0.61
2016-04-25T01:41:28.525Z,0.63
2016-04-25T01:41:38.525Z,0.58
2016-04-25T01:41:48.525Z,0.59
2016-04-25T01:41:58.542Z,0.56
2016-04-25T01:42:08.542Z,0.55
2016-04-25T01:42:18.558Z,0.55
2016-04-25T01:42:28.542Z,0.56
2016-04-25T01:42:38.652Z,0.51
2016-04-25T01:42:48.542Z,0.61
2016-04-25T01:43:17.560Z,0.55
2016-04-25T01:43:27.529Z,0.55
2016-04-25T01:43:37.544Z,0.61
2016-04-25T01:43:47.544Z,0.59
2016-04-25T01:43:57.544Z,0.58
2016-04-25T01:44:07.547Z,0.61
2016-04-25T01:44:17.563Z,0.58
2016-04-25T01:44:27.563Z,0.59
2016-04-25T01:44:37.563Z,0.59
2016-04-25T01:44:47.563Z,0.56
2016-04-25T01:44:57.563Z,0.59
2016-04-25T01:45:07.566Z,0.59
2016-04-25T01:45:17.582Z,0.61
2016-04-25T01:45:27.582Z,0.59
2016-04-25T01:45:37.582Z,0.58
2016-04-25T01:45:47.582Z,0.56
2016-04-25T01:45:57.597Z,0.56
2016-04-25T01:46:07.600Z,0.59
2016-04-25T01:46:17.600Z,0.63
2016-04-25T01:46:27.600Z,0.58
2016-04-25T01:46:37.616Z,0.61
2016-04-25T01:46:47.616Z,0.61
2016-04-25T01:46:57.616Z,0.59
2016-04-25T01:47:07.619Z,0.56
2016-04-25T01:47:17.619Z,0.51
2016-04-25T01:47:27.634Z,0.49
2016-04-25T01:47:37.634Z,0.58
2016-04-25T01:47:47.634Z,0.59
2016-04-25T01:47:57.634Z,0.59
2016-04-25T01:48:07.636Z,0.58
2016-04-25T01:48:17.652Z,0.55
2016-04-25T01:48:27.652Z,0.52
2016-04-25T01:48:37.652Z,0.58
2016-04-25T01:48:47.652Z,0.59
2016-04-25T01:48:57.668Z,0.56
2016-04-25T01:49:07.671Z,0.61
2016-04-25T01:49:17.671Z,0.56
2016-04-25T01:49:27.671Z,0.59
2016-04-25T01:49:37.671Z,0.66
2016-04-25T01:49:47.671Z,0.63
2016-04-25T01:49:57.686Z,0.52
2016-04-25T01:50:07.689Z,0.59
2016-04-25T01:50:17.689Z,0.61
2016-04-25T01:50:27.689Z,0.55
2016-04-25T01:50:37.705Z,0.58
2016-04-25T01:50:47.705Z,0.61
2016-04-25T01:50:57.705Z,0.55
2016-04-25T01:51:07.723Z,0.63
2016-04-25T01:51:17.707Z,0.58
2016-04-25T01:51:27.723Z,0.59
2016-04-25T01:51:37.723Z,0.58
2016-04-25T01:51:47.723Z,0.58
2016-04-25T01:51:57.723Z,0.52
2016-04-25T01:52:07.741Z,0.59
2016-04-25T01:52:17.741Z,0.58
2016-04-25T01:52:27.741Z,0.59
2016-04-25T01:52:37.741Z,0.52
2016-04-25T01:52:47.741Z,0.55
2016-04-25T01:52:57.757Z,0.55
2016-04-25T01:53:07.760Z,0.59
2016-04-25T01:53:17.760Z,0.58
2016-04-25T01:53:27.760Z,0.63
2016-04-25T01:53:37.760Z,0.56
2016-04-25T01:53:47.775Z,0.58
2016-04-25T01:53:57.775Z,0.58
2016-04-25T01:54:07.778Z,0.48
2016-04-25T01:54:17.778Z,0.49
2016-04-25T01:54:27.778Z,0.47
2016-04-25T01:54:37.794Z,0.47
2016-04-25T01:54:47.794Z,0.51
2016-04-25T01:54:57.794Z,0.52
2016-04-25T01:55:07.796Z,0.47
2016-04-25T01:55:17.812Z,0.48
2016-04-25T01:55:27.812Z,0.45
2016-04-25T01:55:37.812Z,0.52
2016-04-25T01:55:47.812Z,0.55
2016-04-25T01:55:57.812Z,0.49
2016-04-25T01:56:07.830Z,0.52
2016-04-25T01:56:17.830Z,0.56
2016-04-25T01:56:27.830Z,0.55
2016-04-25T01:56:37.830Z,0.49
2016-04-25T01:56:47.846Z,0.52
2016-04-25T01:56:57.830Z,0.49
2016-04-25T01:57:07.848Z,0.45
2016-04-25T01:57:18.285Z,0.52
2016-04-25T01:57:27.848Z,0.47
2016-04-25T01:57:38.223Z,0.48
2016-04-25T01:57:47.864Z,0.47
2016-04-25T01:57:57.864Z,0.52
2016-04-25T01:58:08.148Z,0.49
2016-04-25T01:58:18.117Z,0.44
2016-04-25T01:58:27.882Z,0.52
2016-04-25T01:58:37.882Z,0.48
2016-04-25T01:58:47.882Z,0.47
2016-04-25T01:58:57.882Z,0.42
2016-04-25T01:59:07.885Z,0.39
2016-04-25T01:59:17.901Z,0.45
2016-04-25T01:59:27.901Z,0.47
2016-04-25T01:59:37.901Z,0.52
2016-04-25T01:59:47.901Z,0.48
2016-04-25T01:59:57.901Z,0.48
2016-04-25T02:00:07.918Z,0.52
2016-04-25T02:00:17.918Z,0.45
2016-04-25T02:00:27.918Z,0.47
2016-04-25T02:00:37.918Z,0.44
2016-04-25T02:00:47.918Z,0.45
2016-04-25T02:00:57.934Z,0.45
2016-04-25T02:01:07.938Z,0.42
2016-04-25T02:01:17.938Z,0.48
2016-04-25T02:01:27.938Z,0.48
2016-04-25T02:01:37.954Z,0.47
2016-04-25T02:01:47.954Z,0.44
2016-04-25T02:01:57.954Z,0.42
2016-04-25T02:02:07.956Z,0.44
2016-04-25T02:02:17.956Z,0.49
2016-04-25T02:02:27.971Z,0.47
2016-04-25T02:02:37.971Z,0.47
2016-04-25T02:02:47.971Z,0.49
2016-04-25T02:02:57.971Z,0.47
2016-04-25T02:03:07.990Z,0.49
2016-04-25T02:03:17.990Z,0.48
2016-04-25T02:03:27.990Z,0.52
2016-04-25T02:03:37.990Z,0.42
2016-04-25T02:03:47.990Z,0.44
2016-04-25T02:03:57.990Z,0.48
2016-04-25T02:04:08.008Z,0.49
2016-04-25T02:04:18.008Z,0.48
2016-04-25T02:04:28.008Z,0.49
2016-04-25T02:04:38.008Z,0.45
2016-04-25T02:04:48.008Z,0.48
2016-04-25T02:04:58.023Z,0.44
2016-04-25T02:05:08.026Z,0.48
2016-04-25T02:05:18.026Z,0.47
2016-04-25T02:05:28.026Z,0.55
2016-04-25T02:05:38.042Z,0.45
2016-04-25T02:05:48.042Z,0.47
2016-04-25T02:05:58.042Z,0.48
2016-04-25T02:06:08.045Z,0.56
2016-04-25T02:06:18.060Z,0.48
2016-04-25T02:06:28.060Z,0.44
2016-04-25T02:06:38.060Z,0.44
2016-04-25T02:06:48.060Z,0.44
2016-04-25T02:06:58.060Z,0.49
2016-04-25T02:07:08.079Z,0.44
2016-04-25T02:07:18.079Z,0.45
2016-04-25T02:07:28.079Z,0.49
2016-04-25T02:07:38.079Z,0.42
2016-04-25T02:07:48.079Z,0.47
2016-04-25T02:07:58.095Z,0.49
2016-04-25T02:08:08.097Z,0.51
2016-04-25T02:08:18.097Z,0.45
2016-04-25T02:08:28.097Z,0.44
2016-04-25T02:08:38.097Z,0.45
2016-04-25T02:08:48.112Z,0.42
2016-04-25T02:08:58.112Z,0.45
2016-04-25T02:09:08.131Z,0.44
2016-04-25T02:09:18.115Z,0.47
2016-04-25T02:09:28.131Z,0.45
2016-04-25T02:09:38.131Z,0.48
2016-04-25T02:09:48.131Z,0.42
2016-04-25T02:09:58.131Z,0.4
2016-04-25T02:10:08.133Z,0.49
2016-04-25T02:10:18.149Z,0.42
2016-04-25T02:10:28.149Z,0.51
2016-04-25T02:10:38.149Z,0.49
2016-04-25T02:10:48.149Z,0.39
2016-04-25T02:10:58.149Z,0.48
2016-04-25T02:11:08.168Z,0.47
2016-04-25T02:11:18.168Z,0.39
2016-04-25T02:11:28.168Z,0.37
2016-04-25T02:11:38.168Z,0.45
2016-04-25T02:11:48.168Z,0.44
2016-04-25T02:11:58.184Z,0.37
2016-04-25T02:12:08.186Z,0.4
2016-04-25T02:12:18.186Z,0.39
2016-04-25T02:12:28.467Z,0.4
2016-04-25T02:12:38.201Z,0.4
2016-04-25T02:12:48.201Z,0.37
2016-04-25T02:12:58.514Z,0.47
2016-04-25T02:13:08.203Z,0.42
2016-04-25T02:13:18.219Z,0.4
2016-04-25T02:13:28.797Z,0.45
2016-04-25T02:13:38.219Z,0.44
2016-04-25T02:13:48.219Z,0.47
2016-04-25T02:13:58.235Z,0.36